sensor_id;sensor_type;location;lat;lon;timestamp;temperature;humidity
58519;DHT22;44310;48.106;12.008;2023-03-14T00:01:33;15.90;81.70
58519;DHT22;44310;48.106;12.008;2023-03-14T00:04:03;15.90;82.00
58519;DHT22;44310;48.106;12.008;2023-03-14T00:06:30;15.80;81.90
58519;DHT22;44310;48.106;12.008;2023-03-14T00:08:58;15.90;82.20
58519;DHT22;44310;48.106;12.008;2023-03-14T00:11:25;16.80;82.90
58519;DHT22;44310;48.106;12.008;2023-03-14T00:13:53;15.90;82.60
58519;DHT22;44310;48.106;12.008;2023-03-14T00:16:20;15.90;82.90
58519;DHT22;44310;48.106;12.008;2023-03-14T00:18:47;15.90;83.10
58519;DHT22;44310;48.106;12.008;2023-03-14T00:21:15;15.90;83.60
58519;DHT22;44310;48.106;12.008;2023-03-14T00:23:43;15.90;83.90
58519;DHT22;44310;48.106;12.008;2023-03-14T00:26:16;15.90;84.30
58519;DHT22;44310;48.106;12.008;2023-03-14T00:28:44;15.90;84.80
58519;DHT22;44310;48.106;12.008;2023-03-14T00:31:14;16.70;85.10
58519;DHT22;44310;48.106;12.008;2023-03-14T00:33:42;16.00;84.90
58519;DHT22;44310;48.106;12.008;2023-03-14T00:36:13;15.90;85.10
58519;DHT22;44310;48.106;12.008;2023-03-14T00:38:42;16.00;85.10
58519;DHT22;44310;48.106;12.008;2023-03-14T00:41:12;15.90;85.40
58519;DHT22;44310;48.106;12.008;2023-03-14T00:43:39;15.90;85.50
58519;DHT22;44310;48.106;12.008;2023-03-14T00:46:07;15.90;85.70
58519;DHT22;44310;48.106;12.008;2023-03-14T00:48:35;15.50;85.60
58519;DHT22;44310;48.106;12.008;2023-03-14T00:51:05;15.80;85.80
58519;DHT22;44310;48.106;12.008;2023-03-14T00:53:37;15.80;85.90
58519;DHT22;44310;48.106;12.008;2023-03-14T00:56:08;15.80;85.90
58519;DHT22;44310;48.106;12.008;2023-03-14T00:58:35;15.40;85.70
58519;DHT22;44310;48.106;12.008;2023-03-14T01:01:07;15.80;86.10
58519;DHT22;44310;48.106;12.008;2023-03-14T01:03:35;15.80;86.20
58519;DHT22;44310;48.106;12.008;2023-03-14T01:06:14;15.70;86.10
58519;DHT22;44310;48.106;12.008;2023-03-14T01:08:42;15.70;86.30
58519;DHT22;44310;48.106;12.008;2023-03-14T01:11:12;15.70;86.40
58519;DHT22;44310;48.106;12.008;2023-03-14T01:13:41;15.80;86.50
58519;DHT22;44310;48.106;12.008;2023-03-14T01:16:10;15.80;87.00
58519;DHT22;44310;48.106;12.008;2023-03-14T01:18:39;15.80;87.20
58519;DHT22;44310;48.106;12.008;2023-03-14T01:21:21;15.80;87.40
58519;DHT22;44310;48.106;12.008;2023-03-14T01:23:49;15.80;87.40
58519;DHT22;44310;48.106;12.008;2023-03-14T01:26:19;15.80;87.60
58519;DHT22;44310;48.106;12.008;2023-03-14T01:28:48;15.80;87.70
58519;DHT22;44310;48.106;12.008;2023-03-14T01:31:16;15.80;87.60
58519;DHT22;44310;48.106;12.008;2023-03-14T01:33:43;15.70;87.60
58519;DHT22;44310;48.106;12.008;2023-03-14T01:36:13;15.80;88.20
58519;DHT22;44310;48.106;12.008;2023-03-14T01:38:40;15.90;88.40
58519;DHT22;44310;48.106;12.008;2023-03-14T01:41:12;15.80;88.40
58519;DHT22;44310;48.106;12.008;2023-03-14T01:43:39;15.90;88.00
58519;DHT22;44310;48.106;12.008;2023-03-14T01:48:40;15.80;87.60
58519;DHT22;44310;48.106;12.008;2023-03-14T01:51:12;15.80;87.70
58519;DHT22;44310;48.106;12.008;2023-03-14T01:53:42;15.80;87.80
58519;DHT22;44310;48.106;12.008;2023-03-14T01:56:12;15.80;88.00
58519;DHT22;44310;48.106;12.008;2023-03-14T01:58:41;15.80;88.00
58519;DHT22;44310;48.106;12.008;2023-03-14T02:01:11;15.80;88.10
58519;DHT22;44310;48.106;12.008;2023-03-14T02:03:48;15.80;88.10
58519;DHT22;44310;48.106;12.008;2023-03-14T02:06:20;15.80;88.00
58519;DHT22;44310;48.106;12.008;2023-03-14T02:08:48;15.80;88.10
58519;DHT22;44310;48.106;12.008;2023-03-14T02:11:17;15.80;88.20
58519;DHT22;44310;48.106;12.008;2023-03-14T02:13:45;16.70;89.10
58519;DHT22;44310;48.106;12.008;2023-03-14T02:16:12;15.90;89.20
58519;DHT22;44310;48.106;12.008;2023-03-14T02:18:40;15.90;89.10
58519;DHT22;44310;48.106;12.008;2023-03-14T02:21:23;15.90;89.00
58519;DHT22;44310;48.106;12.008;2023-03-14T02:26:38;15.90;88.80
58519;DHT22;44310;48.106;12.008;2023-03-14T02:29:07;15.90;88.90
58519;DHT22;44310;48.106;12.008;2023-03-14T02:31:35;15.90;88.90
58519;DHT22;44310;48.106;12.008;2023-03-14T02:34:02;15.80;88.80
58519;DHT22;44310;48.106;12.008;2023-03-14T02:36:30;15.90;89.10
58519;DHT22;44310;48.106;12.008;2023-03-14T02:39:12;15.90;89.10
58519;DHT22;44310;48.106;12.008;2023-03-14T02:41:41;15.90;89.10
58519;DHT22;44310;48.106;12.008;2023-03-14T02:44:09;15.90;89.20
58519;DHT22;44310;48.106;12.008;2023-03-14T02:46:36;15.80;89.10
58519;DHT22;44310;48.106;12.008;2023-03-14T02:49:12;15.80;89.20
58519;DHT22;44310;48.106;12.008;2023-03-14T02:51:41;15.80;89.20
58519;DHT22;44310;48.106;12.008;2023-03-14T02:54:10;15.80;89.60
58519;DHT22;44310;48.106;12.008;2023-03-14T02:56:38;15.80;89.70
58519;DHT22;44310;48.106;12.008;2023-03-14T02:59:05;15.80;89.90
58519;DHT22;44310;48.106;12.008;2023-03-14T03:01:35;15.80;89.80
58519;DHT22;44310;48.106;12.008;2023-03-14T03:04:03;15.80;89.60
58519;DHT22;44310;48.106;12.008;2023-03-14T03:06:30;15.70;89.70
58519;DHT22;44310;48.106;12.008;2023-03-14T03:08:57;15.80;89.70
58519;DHT22;44310;48.106;12.008;2023-03-14T03:11:24;15.70;89.60
58519;DHT22;44310;48.106;12.008;2023-03-14T03:13:52;15.70;89.60
58519;DHT22;44310;48.106;12.008;2023-03-14T03:16:19;15.70;90.10
58519;DHT22;44310;48.106;12.008;2023-03-14T03:18:46;15.80;90.10
58519;DHT22;44310;48.106;12.008;2023-03-14T03:21:13;16.00;90.20
58519;DHT22;44310;48.106;12.008;2023-03-14T03:23:40;15.90;90.10
58519;DHT22;44310;48.106;12.008;2023-03-14T03:26:09;15.90;90.10
58519;DHT22;44310;48.106;12.008;2023-03-14T03:28:36;15.90;90.20
58519;DHT22;44310;48.106;12.008;2023-03-14T03:31:10;15.90;90.20
58519;DHT22;44310;48.106;12.008;2023-03-14T03:33:38;15.90;90.10
58519;DHT22;44310;48.106;12.008;2023-03-14T03:36:06;15.90;90.20
58519;DHT22;44310;48.106;12.008;2023-03-14T03:38:33;15.90;90.30
58519;DHT22;44310;48.106;12.008;2023-03-14T03:41:07;15.30;90.10
58519;DHT22;44310;48.106;12.008;2023-03-14T03:43:35;16.20;90.40
58519;DHT22;44310;48.106;12.008;2023-03-14T03:46:06;15.90;90.30
58519;DHT22;44310;48.106;12.008;2023-03-14T03:48:34;15.90;90.40
58519;DHT22;44310;48.106;12.008;2023-03-14T03:51:02;15.90;90.40
58519;DHT22;44310;48.106;12.008;2023-03-14T03:53:29;15.90;90.40
58519;DHT22;44310;48.106;12.008;2023-03-14T03:56:00;15.90;90.40
58519;DHT22;44310;48.106;12.008;2023-03-14T03:58:27;15.90;90.30
58519;DHT22;44310;48.106;12.008;2023-03-14T04:00:54;15.90;90.40
58519;DHT22;44310;48.106;12.008;2023-03-14T04:03:22;15.90;90.40
58519;DHT22;44310;48.106;12.008;2023-03-14T04:06:03;15.90;90.40
58519;DHT22;44310;48.106;12.008;2023-03-14T04:08:31;15.80;90.30
58519;DHT22;44310;48.106;12.008;2023-03-14T04:10:59;15.90;90.30
58519;DHT22;44310;48.106;12.008;2023-03-14T04:13:27;15.80;90.30
58519;DHT22;44310;48.106;12.008;2023-03-14T04:15:55;15.80;90.30
58519;DHT22;44310;48.106;12.008;2023-03-14T04:18:23;15.80;90.20
58519;DHT22;44310;48.106;12.008;2023-03-14T04:20:57;15.80;90.20
58519;DHT22;44310;48.106;12.008;2023-03-14T04:23:24;15.80;90.10
58519;DHT22;44310;48.106;12.008;2023-03-14T04:25:52;15.80;90.10
58519;DHT22;44310;48.106;12.008;2023-03-14T04:28:20;15.90;90.60
58519;DHT22;44310;48.106;12.008;2023-03-14T04:30:47;15.90;90.70
58519;DHT22;44310;48.106;12.008;2023-03-14T04:33:14;15.90;90.70
58519;DHT22;44310;48.106;12.008;2023-03-14T04:35:45;16.20;90.80
58519;DHT22;44310;48.106;12.008;2023-03-14T04:38:12;15.90;90.60
58519;DHT22;44310;48.106;12.008;2023-03-14T04:40:40;15.90;90.60
58519;DHT22;44310;48.106;12.008;2023-03-14T04:43:09;16.00;90.50
58519;DHT22;44310;48.106;12.008;2023-03-14T04:45:37;15.90;90.50
58519;DHT22;44310;48.106;12.008;2023-03-14T04:48:04;15.90;90.50
58519;DHT22;44310;48.106;12.008;2023-03-14T04:50:31;15.90;90.40
58519;DHT22;44310;48.106;12.008;2023-03-14T04:52:58;15.90;90.40
58519;DHT22;44310;48.106;12.008;2023-03-14T04:55:25;15.90;90.40
58519;DHT22;44310;48.106;12.008;2023-03-14T04:57:52;15.90;90.30
58519;DHT22;44310;48.106;12.008;2023-03-14T05:00:19;15.90;90.30
58519;DHT22;44310;48.106;12.008;2023-03-14T05:02:47;15.90;90.10
58519;DHT22;44310;48.106;12.008;2023-03-14T05:05:14;15.90;90.10
58519;DHT22;44310;48.106;12.008;2023-03-14T05:07:41;15.90;90.20
58519;DHT22;44310;48.106;12.008;2023-03-14T05:10:08;15.90;90.30
58519;DHT22;44310;48.106;12.008;2023-03-14T05:12:36;15.90;90.40
58519;DHT22;44310;48.106;12.008;2023-03-14T05:15:04;15.90;90.40
58519;DHT22;44310;48.106;12.008;2023-03-14T05:17:34;15.90;90.40
58519;DHT22;44310;48.106;12.008;2023-03-14T05:20:03;15.90;90.50
58519;DHT22;44310;48.106;12.008;2023-03-14T05:22:35;15.90;90.50
58519;DHT22;44310;48.106;12.008;2023-03-14T05:25:02;16.00;90.40
58519;DHT22;44310;48.106;12.008;2023-03-14T05:27:30;16.00;90.50
58519;DHT22;44310;48.106;12.008;2023-03-14T05:29:57;16.00;90.60
58519;DHT22;44310;48.106;12.008;2023-03-14T05:32:24;16.00;90.60
58519;DHT22;44310;48.106;12.008;2023-03-14T05:34:51;15.90;90.50
58519;DHT22;44310;48.106;12.008;2023-03-14T05:37:18;15.90;90.50
58519;DHT22;44310;48.106;12.008;2023-03-14T05:39:46;15.90;90.50
58519;DHT22;44310;48.106;12.008;2023-03-14T05:42:13;15.90;90.50
58519;DHT22;44310;48.106;12.008;2023-03-14T05:44:40;15.90;90.50
58519;DHT22;44310;48.106;12.008;2023-03-14T05:47:07;15.90;90.40
58519;DHT22;44310;48.106;12.008;2023-03-14T05:49:34;15.90;90.50
58519;DHT22;44310;48.106;12.008;2023-03-14T05:52:01;15.90;90.50
58519;DHT22;44310;48.106;12.008;2023-03-14T05:54:28;15.90;90.40
58519;DHT22;44310;48.106;12.008;2023-03-14T05:56:55;15.90;90.50
58519;DHT22;44310;48.106;12.008;2023-03-14T05:59:22;15.90;90.60
58519;DHT22;44310;48.106;12.008;2023-03-14T06:01:50;15.90;90.90
58519;DHT22;44310;48.106;12.008;2023-03-14T06:04:17;15.90;90.80
58519;DHT22;44310;48.106;12.008;2023-03-14T06:06:44;16.00;90.70
58519;DHT22;44310;48.106;12.008;2023-03-14T06:09:11;16.00;90.60
58519;DHT22;44310;48.106;12.008;2023-03-14T06:11:38;16.00;90.60
58519;DHT22;44310;48.106;12.008;2023-03-14T06:14:05;16.00;90.50
58519;DHT22;44310;48.106;12.008;2023-03-14T06:16:32;16.00;90.50
58519;DHT22;44310;48.106;12.008;2023-03-14T06:18:59;16.00;90.40
58519;DHT22;44310;48.106;12.008;2023-03-14T06:21:26;16.00;90.30
58519;DHT22;44310;48.106;12.008;2023-03-14T06:23:54;16.00;90.30
58519;DHT22;44310;48.106;12.008;2023-03-14T06:26:21;16.00;90.30
58519;DHT22;44310;48.106;12.008;2023-03-14T06:28:49;16.00;90.20
58519;DHT22;44310;48.106;12.008;2023-03-14T06:31:17;16.00;90.10
58519;DHT22;44310;48.106;12.008;2023-03-14T06:33:44;16.00;90.10
58519;DHT22;44310;48.106;12.008;2023-03-14T06:36:12;16.00;90.10
58519;DHT22;44310;48.106;12.008;2023-03-14T06:38:39;16.00;90.00
58519;DHT22;44310;48.106;12.008;2023-03-14T06:41:06;16.10;90.10
58519;DHT22;44310;48.106;12.008;2023-03-14T06:43:34;16.00;90.10
58519;DHT22;44310;48.106;12.008;2023-03-14T06:46:01;16.00;90.10
58519;DHT22;44310;48.106;12.008;2023-03-14T06:48:28;16.00;90.10
58519;DHT22;44310;48.106;12.008;2023-03-14T06:50:55;16.00;90.20
58519;DHT22;44310;48.106;12.008;2023-03-14T06:53:22;16.00;90.20
58519;DHT22;44310;48.106;12.008;2023-03-14T06:55:49;16.10;90.30
58519;DHT22;44310;48.106;12.008;2023-03-14T06:58:16;16.00;90.20
58519;DHT22;44310;48.106;12.008;2023-03-14T07:00:44;16.00;90.20
58519;DHT22;44310;48.106;12.008;2023-03-14T07:03:13;16.00;90.20
58519;DHT22;44310;48.106;12.008;2023-03-14T07:05:40;16.00;90.30
58519;DHT22;44310;48.106;12.008;2023-03-14T07:08:08;16.00;90.40
58519;DHT22;44310;48.106;12.008;2023-03-14T07:10:35;16.00;90.40
58519;DHT22;44310;48.106;12.008;2023-03-14T07:13:03;16.00;90.30
58519;DHT22;44310;48.106;12.008;2023-03-14T07:15:30;16.00;90.30
58519;DHT22;44310;48.106;12.008;2023-03-14T07:17:57;16.00;90.30
58519;DHT22;44310;48.106;12.008;2023-03-14T07:20:24;16.00;90.10
58519;DHT22;44310;48.106;12.008;2023-03-14T07:22:51;16.00;90.40
58519;DHT22;44310;48.106;12.008;2023-03-14T07:25:19;16.00;90.10
58519;DHT22;44310;48.106;12.008;2023-03-14T07:27:46;16.00;90.10
58519;DHT22;44310;48.106;12.008;2023-03-14T07:30:14;16.00;90.00
58519;DHT22;44310;48.106;12.008;2023-03-14T07:32:42;15.90;89.80
58519;DHT22;44310;48.106;12.008;2023-03-14T07:35:09;16.00;90.00
58519;DHT22;44310;48.106;12.008;2023-03-14T07:37:36;16.00;90.00
58519;DHT22;44310;48.106;12.008;2023-03-14T07:40:04;16.00;90.00
58519;DHT22;44310;48.106;12.008;2023-03-14T07:42:33;16.00;90.00
58519;DHT22;44310;48.106;12.008;2023-03-14T07:45:01;15.90;90.00
58519;DHT22;44310;48.106;12.008;2023-03-14T07:47:28;16.00;90.10
58519;DHT22;44310;48.106;12.008;2023-03-14T07:49:55;16.00;90.20
58519;DHT22;44310;48.106;12.008;2023-03-14T07:52:25;16.00;90.30
58519;DHT22;44310;48.106;12.008;2023-03-14T07:54:52;16.00;90.40
58519;DHT22;44310;48.106;12.008;2023-03-14T07:57:19;16.10;90.60
58519;DHT22;44310;48.106;12.008;2023-03-14T07:59:46;16.10;90.60
58519;DHT22;44310;48.106;12.008;2023-03-14T08:02:13;16.10;90.60
58519;DHT22;44310;48.106;12.008;2023-03-14T08:04:41;16.10;90.60
58519;DHT22;44310;48.106;12.008;2023-03-14T08:07:08;16.10;90.70
58519;DHT22;44310;48.106;12.008;2023-03-14T08:09:35;16.10;90.70
58519;DHT22;44310;48.106;12.008;2023-03-14T08:12:02;16.10;90.70
58519;DHT22;44310;48.106;12.008;2023-03-14T08:14:29;16.20;90.70
58519;DHT22;44310;48.106;12.008;2023-03-14T08:16:57;16.10;90.70
58519;DHT22;44310;48.106;12.008;2023-03-14T08:19:24;16.40;90.80
58519;DHT22;44310;48.106;12.008;2023-03-14T08:21:52;16.10;90.70
58519;DHT22;44310;48.106;12.008;2023-03-14T08:24:19;16.10;90.70
58519;DHT22;44310;48.106;12.008;2023-03-14T08:26:46;16.00;90.70
58519;DHT22;44310;48.106;12.008;2023-03-14T08:29:13;16.00;90.60
58519;DHT22;44310;48.106;12.008;2023-03-14T08:31:40;16.00;90.60
58519;DHT22;44310;48.106;12.008;2023-03-14T08:34:07;15.90;90.70
58519;DHT22;44310;48.106;12.008;2023-03-14T08:36:35;16.00;90.70
58519;DHT22;44310;48.106;12.008;2023-03-14T08:39:02;15.90;90.70
58519;DHT22;44310;48.106;12.008;2023-03-14T08:41:30;15.90;90.70
58519;DHT22;44310;48.106;12.008;2023-03-14T08:43:57;15.90;90.70
58519;DHT22;44310;48.106;12.008;2023-03-14T08:46:25;15.90;90.70
58519;DHT22;44310;48.106;12.008;2023-03-14T08:48:52;15.80;91.00
58519;DHT22;44310;48.106;12.008;2023-03-14T08:51:19;16.00;91.20
58519;DHT22;44310;48.106;12.008;2023-03-14T08:53:46;16.00;91.20
58519;DHT22;44310;48.106;12.008;2023-03-14T08:56:13;16.00;91.20
58519;DHT22;44310;48.106;12.008;2023-03-14T08:58:40;16.10;91.10
58519;DHT22;44310;48.106;12.008;2023-03-14T09:01:09;15.80;91.00
58519;DHT22;44310;48.106;12.008;2023-03-14T09:03:37;16.00;91.00
58519;DHT22;44310;48.106;12.008;2023-03-14T09:06:09;16.00;91.00
58519;DHT22;44310;48.106;12.008;2023-03-14T09:08:36;16.10;90.90
58519;DHT22;44310;48.106;12.008;2023-03-14T09:11:08;16.10;90.90
58519;DHT22;44310;48.106;12.008;2023-03-14T09:13:36;16.10;90.90
58519;DHT22;44310;48.106;12.008;2023-03-14T09:16:04;16.00;90.80
58519;DHT22;44310;48.106;12.008;2023-03-14T09:18:31;16.10;90.80
58519;DHT22;44310;48.106;12.008;2023-03-14T09:20:58;16.10;90.90
58519;DHT22;44310;48.106;12.008;2023-03-14T09:23:25;16.10;90.80
58519;DHT22;44310;48.106;12.008;2023-03-14T09:25:57;16.10;90.70
58519;DHT22;44310;48.106;12.008;2023-03-14T09:28:24;15.50;90.60
58519;DHT22;44310;48.106;12.008;2023-03-14T09:30:52;16.10;90.80
58519;DHT22;44310;48.106;12.008;2023-03-14T09:33:19;16.10;90.70
58519;DHT22;44310;48.106;12.008;2023-03-14T09:35:46;16.10;90.60
58519;DHT22;44310;48.106;12.008;2023-03-14T09:38:13;16.10;90.60
58519;DHT22;44310;48.106;12.008;2023-03-14T09:40:40;16.10;90.50
58519;DHT22;44310;48.106;12.008;2023-03-14T09:43:13;16.10;90.50
58519;DHT22;44310;48.106;12.008;2023-03-14T09:45:42;16.10;90.50
58519;DHT22;44310;48.106;12.008;2023-03-14T09:48:16;16.10;90.50
58519;DHT22;44310;48.106;12.008;2023-03-14T09:50:55;16.10;90.30
58519;DHT22;44310;48.106;12.008;2023-03-14T09:53:28;16.10;89.00
58519;DHT22;44310;48.106;12.008;2023-03-14T09:55:58;15.90;88.60
58519;DHT22;44310;48.106;12.008;2023-03-14T09:58:26;15.70;89.80
58519;DHT22;44310;48.106;12.008;2023-03-14T10:00:56;15.60;88.80
58519;DHT22;44310;48.106;12.008;2023-03-14T10:03:27;15.60;88.10
58519;DHT22;44310;48.106;12.008;2023-03-14T10:05:56;16.10;89.20
58519;DHT22;44310;48.106;12.008;2023-03-14T10:08:23;15.60;89.80
58519;DHT22;44310;48.106;12.008;2023-03-14T10:10:50;15.70;89.10
58519;DHT22;44310;48.106;12.008;2023-03-14T10:13:23;15.70;89.00
58519;DHT22;44310;48.106;12.008;2023-03-14T10:16:00;16.80;89.20
58519;DHT22;44310;48.106;12.008;2023-03-14T10:18:30;15.80;88.70
58519;DHT22;44310;48.106;12.008;2023-03-14T10:21:26;15.80;88.30
58519;DHT22;44310;48.106;12.008;2023-03-14T10:23:54;15.80;88.70
58519;DHT22;44310;48.106;12.008;2023-03-14T10:26:34;15.90;89.40
58519;DHT22;44310;48.106;12.008;2023-03-14T10:29:12;15.80;86.60
58519;DHT22;44310;48.106;12.008;2023-03-14T10:32:03;15.70;88.50
58519;DHT22;44310;48.106;12.008;2023-03-14T10:34:33;15.50;85.60
58519;DHT22;44310;48.106;12.008;2023-03-14T10:39:53;14.90;82.60
58519;DHT22;44310;48.106;12.008;2023-03-14T10:42:28;15.30;84.00
58519;DHT22;44310;48.106;12.008;2023-03-14T10:45:05;14.70;85.50
58519;DHT22;44310;48.106;12.008;2023-03-14T10:47:48;14.80;87.60
58519;DHT22;44310;48.106;12.008;2023-03-14T10:52:52;15.10;89.50
58519;DHT22;44310;48.106;12.008;2023-03-14T10:55:40;15.20;89.30
58519;DHT22;44310;48.106;12.008;2023-03-14T10:58:23;15.20;89.50
58519;DHT22;44310;48.106;12.008;2023-03-14T11:09:58;15.30;89.10
58519;DHT22;44310;48.106;12.008;2023-03-14T11:26:38;14.70;89.00
58519;DHT22;44310;48.106;12.008;2023-03-14T11:29:21;15.40;89.10
58519;DHT22;44310;48.106;12.008;2023-03-14T11:31:49;15.40;89.30
58519;DHT22;44310;48.106;12.008;2023-03-14T11:37:27;15.40;89.10
58519;DHT22;44310;48.106;12.008;2023-03-14T11:40:22;15.40;89.10
58519;DHT22;44310;48.106;12.008;2023-03-14T11:45:42;15.40;89.00
58519;DHT22;44310;48.106;12.008;2023-03-14T11:50:44;15.40;88.80
58519;DHT22;44310;48.106;12.008;2023-03-14T11:53:16;15.40;89.00
58519;DHT22;44310;48.106;12.008;2023-03-14T11:55:44;15.40;88.80
58519;DHT22;44310;48.106;12.008;2023-03-14T11:58:25;15.40;88.80
58519;DHT22;44310;48.106;12.008;2023-03-14T12:00:55;15.40;88.50
58519;DHT22;44310;48.106;12.008;2023-03-14T12:03:36;15.40;88.30
58519;DHT22;44310;48.106;12.008;2023-03-14T12:06:19;15.40;88.20
58519;DHT22;44310;48.106;12.008;2023-03-14T12:08:54;15.40;88.10
58519;DHT22;44310;48.106;12.008;2023-03-14T12:11:47;15.40;87.80
58519;DHT22;44310;48.106;12.008;2023-03-14T12:14:20;15.40;87.90
58519;DHT22;44310;48.106;12.008;2023-03-14T12:16:48;15.40;87.60
58519;DHT22;44310;48.106;12.008;2023-03-14T12:22:05;15.40;87.50
58519;DHT22;44310;48.106;12.008;2023-03-14T12:24:36;15.40;87.50
58519;DHT22;44310;48.106;12.008;2023-03-14T12:27:05;15.40;87.40
58519;DHT22;44310;48.106;12.008;2023-03-14T12:29:32;15.40;87.30
58519;DHT22;44310;48.106;12.008;2023-03-14T12:34:40;15.60;87.30
58519;DHT22;44310;48.106;12.008;2023-03-14T12:37:14;15.50;87.00
58519;DHT22;44310;48.106;12.008;2023-03-14T12:40:17;15.40;87.00
58519;DHT22;44310;48.106;12.008;2023-03-14T12:43:02;15.40;86.80
58519;DHT22;44310;48.106;12.008;2023-03-14T12:45:35;15.30;86.20
58519;DHT22;44310;48.106;12.008;2023-03-14T12:48:23;15.40;85.60
58519;DHT22;44310;48.106;12.008;2023-03-14T12:51:00;15.40;85.70
58519;DHT22;44310;48.106;12.008;2023-03-14T12:53:52;15.30;85.00
58519;DHT22;44310;48.106;12.008;2023-03-14T12:59:36;15.30;84.10
58519;DHT22;44310;48.106;12.008;2023-03-14T13:12:46;15.70;87.10
58519;DHT22;44310;48.106;12.008;2023-03-14T13:18:38;15.80;87.90
58519;DHT22;44310;48.106;12.008;2023-03-14T13:21:22;15.80;88.00
58519;DHT22;44310;48.106;12.008;2023-03-14T13:24:26;15.80;88.00
58519;DHT22;44310;48.106;12.008;2023-03-14T13:26:55;15.80;87.80
58519;DHT22;44310;48.106;12.008;2023-03-14T13:29:27;15.80;88.10
58519;DHT22;44310;48.106;12.008;2023-03-14T13:31:57;15.80;88.20
58519;DHT22;44310;48.106;12.008;2023-03-14T13:34:29;15.80;88.30
58519;DHT22;44310;48.106;12.008;2023-03-14T13:36:57;15.90;88.50
58519;DHT22;44310;48.106;12.008;2023-03-14T13:39:26;15.90;89.10
58519;DHT22;44310;48.106;12.008;2023-03-14T13:41:55;15.90;88.50
58519;DHT22;44310;48.106;12.008;2023-03-14T13:44:33;16.00;86.00
58519;DHT22;44310;48.106;12.008;2023-03-14T13:47:03;16.00;87.00
58519;DHT22;44310;48.106;12.008;2023-03-14T13:49:32;16.00;86.70
58519;DHT22;44310;48.106;12.008;2023-03-14T13:52:03;16.00;84.70
58519;DHT22;44310;48.106;12.008;2023-03-14T13:54:31;16.00;86.00
58519;DHT22;44310;48.106;12.008;2023-03-14T13:57:04;16.00;87.10
58519;DHT22;44310;48.106;12.008;2023-03-14T13:59:33;16.00;87.30
58519;DHT22;44310;48.106;12.008;2023-03-14T14:02:04;16.00;87.40
58519;DHT22;44310;48.106;12.008;2023-03-14T14:04:36;15.90;87.80
58519;DHT22;44310;48.106;12.008;2023-03-14T14:07:10;16.00;87.70
58519;DHT22;44310;48.106;12.008;2023-03-14T14:09:47;16.00;87.40
58519;DHT22;44310;48.106;12.008;2023-03-14T14:12:41;16.00;86.90
58519;DHT22;44310;48.106;12.008;2023-03-14T14:15:19;16.00;86.90
58519;DHT22;44310;48.106;12.008;2023-03-14T14:17:57;16.00;87.30
58519;DHT22;44310;48.106;12.008;2023-03-14T14:20:45;16.00;87.70
58519;DHT22;44310;48.106;12.008;2023-03-14T14:23:19;16.00;88.30
58519;DHT22;44310;48.106;12.008;2023-03-14T14:25:52;16.00;88.60
58519;DHT22;44310;48.106;12.008;2023-03-14T14:28:27;16.10;88.70
58519;DHT22;44310;48.106;12.008;2023-03-14T14:33:40;16.10;89.40
58519;DHT22;44310;48.106;12.008;2023-03-14T14:36:31;16.00;89.70
58519;DHT22;44310;48.106;12.008;2023-03-14T14:39:03;16.00;89.80
58519;DHT22;44310;48.106;12.008;2023-03-14T14:41:34;16.00;90.00
58519;DHT22;44310;48.106;12.008;2023-03-14T14:44:03;16.00;90.10
58519;DHT22;44310;48.106;12.008;2023-03-14T14:46:35;16.00;90.10
58519;DHT22;44310;48.106;12.008;2023-03-14T14:49:13;16.00;90.10
58519;DHT22;44310;48.106;12.008;2023-03-14T14:51:47;16.00;90.40
58519;DHT22;44310;48.106;12.008;2023-03-14T14:54:18;16.00;90.60
58519;DHT22;44310;48.106;12.008;2023-03-14T14:56:51;16.10;90.60
58519;DHT22;44310;48.106;12.008;2023-03-14T14:59:27;16.00;90.70
58519;DHT22;44310;48.106;12.008;2023-03-14T15:01:58;16.00;90.90
58519;DHT22;44310;48.106;12.008;2023-03-14T15:04:26;16.00;90.90
58519;DHT22;44310;48.106;12.008;2023-03-14T15:06:53;16.00;90.90
58519;DHT22;44310;48.106;12.008;2023-03-14T15:09:20;16.00;90.80
58519;DHT22;44310;48.106;12.008;2023-03-14T15:11:48;16.00;90.90
58519;DHT22;44310;48.106;12.008;2023-03-14T15:14:15;16.00;91.10
58519;DHT22;44310;48.106;12.008;2023-03-14T15:16:43;16.00;91.10
58519;DHT22;44310;48.106;12.008;2023-03-14T15:19:36;16.10;91.10
58519;DHT22;44310;48.106;12.008;2023-03-14T15:22:08;16.00;91.10
58519;DHT22;44310;48.106;12.008;2023-03-14T15:24:39;16.10;91.10
58519;DHT22;44310;48.106;12.008;2023-03-14T15:27:13;15.80;91.00
58519;DHT22;44310;48.106;12.008;2023-03-14T15:29:41;16.00;91.00
58519;DHT22;44310;48.106;12.008;2023-03-14T15:32:12;16.00;91.00
58519;DHT22;44310;48.106;12.008;2023-03-14T15:34:40;15.90;90.90
58519;DHT22;44310;48.106;12.008;2023-03-14T15:37:15;15.90;91.00
58519;DHT22;44310;48.106;12.008;2023-03-14T15:39:43;16.00;91.00
58519;DHT22;44310;48.106;12.008;2023-03-14T15:42:10;15.90;91.00
58519;DHT22;44310;48.106;12.008;2023-03-14T15:44:37;15.90;90.90
58519;DHT22;44310;48.106;12.008;2023-03-14T15:47:06;15.90;91.00
58519;DHT22;44310;48.106;12.008;2023-03-14T15:49:33;16.00;91.00
58519;DHT22;44310;48.106;12.008;2023-03-14T15:52:01;16.00;90.90
58519;DHT22;44310;48.106;12.008;2023-03-14T15:54:29;16.00;90.90
58519;DHT22;44310;48.106;12.008;2023-03-14T15:56:56;16.00;90.80
58519;DHT22;44310;48.106;12.008;2023-03-14T15:59:24;16.00;90.70
58519;DHT22;44310;48.106;12.008;2023-03-14T16:01:51;16.00;90.70
58519;DHT22;44310;48.106;12.008;2023-03-14T16:04:18;15.90;90.60
58519;DHT22;44310;48.106;12.008;2023-03-14T16:06:45;15.90;90.50
58519;DHT22;44310;48.106;12.008;2023-03-14T16:09:13;15.90;90.50
58519;DHT22;44310;48.106;12.008;2023-03-14T16:11:40;15.90;90.40
58519;DHT22;44310;48.106;12.008;2023-03-14T16:14:08;15.90;90.40
58519;DHT22;44310;48.106;12.008;2023-03-14T16:16:35;15.60;90.20
58519;DHT22;44310;48.106;12.008;2023-03-14T16:19:02;15.90;90.30
58519;DHT22;44310;48.106;12.008;2023-03-14T16:21:31;16.00;90.30
58519;DHT22;44310;48.106;12.008;2023-03-14T16:23:59;15.90;90.20
58519;DHT22;44310;48.106;12.008;2023-03-14T16:26:28;15.90;90.30
58519;DHT22;44310;48.106;12.008;2023-03-14T16:28:55;16.00;90.10
58519;DHT22;44310;48.106;12.008;2023-03-14T16:31:23;15.90;90.10
58519;DHT22;44310;48.106;12.008;2023-03-14T16:33:52;15.90;90.20
58519;DHT22;44310;48.106;12.008;2023-03-14T16:36:19;15.90;90.20
58519;DHT22;44310;48.106;12.008;2023-03-14T16:38:46;15.90;90.10
58519;DHT22;44310;48.106;12.008;2023-03-14T16:41:16;15.90;90.00